Time;durP1;ratioP1;P1;durP2;ratioP2;P2;SDS_P1;SDS_P2;PMS_P1;PMS_P2;Temp;Humidity;BMP_temperature;BMP_pressure;BME280_temperature;BME280_humidity;BME280_pressure;Samples;Min_cycle;Max_cycle;Signal;HPM_P1;HPM_P2
2021/10/18 00:00:26;;;;;;;3.58;3.03;;;;;;;;;;5023780;28;20583;-46
2021/10/18 00:02:52;;;;;;;2.70;2.42;;;;;;;;;;5023037;28;20198;-46
2021/10/18 00:05:18;;;;;;;2.92;2.72;;;;;;;;;;5028023;28;20207;-46
2021/10/18 00:07:44;;;;;;;3.50;2.60;;;;;;;;;;5034508;28;20512;-46
2021/10/18 00:10:11;;;;;;;3.05;2.75;;;;;;;;;;5019975;28;20190;-46
2021/10/18 00:12:37;;;;;;;2.90;2.70;;;;;;;;;;5020338;28;20188;-46
2021/10/18 00:15:05;;;;;;;3.10;2.70;;;;;;;;;;5036009;28;20183;-46
2021/10/18 00:17:31;;;;;;;3.05;2.55;;;;;;;;;;5036633;28;20268;-46
2021/10/18 00:19:57;;;;;;;2.80;2.60;;;;;;;;;;5032239;28;20291;-46
2021/10/18 00:22:23;;;;;;;2.88;2.58;;;;;;;;;;5029371;28;20191;-47
2021/10/18 00:24:49;;;;;;;3.03;2.72;;;;;;;;;;5036807;28;20187;-47
2021/10/18 00:27:15;;;;;;;2.63;2.42;;;;;;;;;;5038070;28;20179;-47
2021/10/18 00:29:41;;;;;;;2.63;2.42;;;;;;;;;;5035222;28;20184;-47
2021/10/18 00:32:07;;;;;;;2.90;2.60;;;;;;;;;;5020142;28;20195;-47
2021/10/18 00:34:32;;;;;;;2.95;2.60;;;;;;;;;;5018391;28;20215;-47
2021/10/18 00:36:58;;;;;;;2.75;2.55;;;;;;;;;;5036027;28;20267;-46
2021/10/18 00:39:24;;;;;;;2.70;2.40;;;;;;;;;;5037088;28;20815;-46
2021/10/18 00:41:50;;;;;;;2.53;2.33;;;;;;;;;;5037738;28;20276;-46
2021/10/18 00:44:16;;;;;;;3.17;2.63;;;;;;;;;;5034122;28;20172;-46
2021/10/18 00:46:43;;;;;;;2.40;2.20;;;;;;;;;;5026483;28;20187;-46
2021/10/18 00:49:09;;;;;;;2.50;2.30;;;;;;;;;;5035173;28;20188;-46
2021/10/18 00:51:35;;;;;;;2.40;2.20;;;;;;;;;;5034066;28;20263;-46
2021/10/18 00:54:02;;;;;;;2.85;2.30;;;;;;;;;;5033135;28;20246;-46
2021/10/18 00:56:28;;;;;;;2.65;2.45;;;;;;;;;;5017472;28;20207;-46
2021/10/18 00:58:55;;;;;;;2.63;2.42;;;;;;;;;;5017420;28;20173;-47
2021/10/18 01:01:21;;;;;;;2.40;2.20;;;;;;;;;;5033220;28;20211;-46
2021/10/18 01:03:47;;;;;;;3.90;2.25;;;;;;;;;;5032352;28;20200;-46
2021/10/18 01:06:13;;;;;;;2.50;2.28;;;;;;;;;;5035106;28;20272;-46
2021/10/18 01:08:40;;;;;;;2.40;2.20;;;;;;;;;;5037625;28;20176;-46
2021/10/18 01:11:06;;;;;;;2.35;2.15;;;;;;;;;;5024389;28;20180;-46
2021/10/18 01:13:32;;;;;;;2.50;2.30;;;;;;;;;;5036538;28;20188;-46
2021/10/18 01:16:01;;;;;;;2.80;2.20;;;;;;;;;;5033606;28;20494;-46
2021/10/18 01:18:27;;;;;;;2.72;2.47;;;;;;;;;;5017238;28;20176;-46
2021/10/18 01:20:53;;;;;;;2.58;2.38;;;;;;;;;;5022047;28;20516;-46
2021/10/18 01:23:19;;;;;;;3.00;2.47;;;;;;;;;;5035012;28;20183;-46
2021/10/18 01:25:45;;;;;;;2.40;2.20;;;;;;;;;;5036754;28;20186;-46
2021/10/18 01:28:11;;;;;;;2.83;2.45;;;;;;;;;;5036786;28;20218;-46
2021/10/18 01:30:37;;;;;;;2.38;2.17;;;;;;;;;;5032652;28;20188;-46
2021/10/18 01:33:03;;;;;;;4.50;2.78;;;;;;;;;;5016834;28;20192;-46
2021/10/18 01:35:29;;;;;;;2.30;2.13;;;;;;;;;;5019292;28;20496;-47
2021/10/18 01:38:01;;;;;;;2.60;2.30;;;;;;;;;;5017225;28;20188;-46
2021/10/18 01:40:28;;;;;;;3.20;2.15;;;;;;;;;;5030819;28;20299;-46
2021/10/18 01:42:54;;;;;;;2.40;2.20;;;;;;;;;;5033297;28;20750;-46
2021/10/18 01:45:21;;;;;;;2.22;1.95;;;;;;;;;;5033631;28;20230;-46
2021/10/18 01:47:47;;;;;;;2.97;2.45;;;;;;;;;;5033937;28;20283;-46
2021/10/18 01:50:15;;;;;;;2.90;2.05;;;;;;;;;;5029651;28;20216;-46
2021/10/18 01:52:42;;;;;;;2.45;2.10;;;;;;;;;;5016571;28;20268;-46
2021/10/18 01:55:08;;;;;;;2.22;2.00;;;;;;;;;;5021830;28;20213;-46
2021/10/18 01:57:34;;;;;;;2.75;1.90;;;;;;;;;;5017847;28;20177;-46
2021/10/18 02:00:00;;;;;;;2.30;2.10;;;;;;;;;;5033205;28;20203;-46
2021/10/18 02:02:26;;;;;;;2.75;2.05;;;;;;;;;;5035907;28;20196;-46
2021/10/18 02:04:52;;;;;;;2.40;2.20;;;;;;;;;;5025970;28;20222;-46
2021/10/18 02:07:19;;;;;;;2.35;1.92;;;;;;;;;;5031434;28;20172;-46
2021/10/18 02:09:45;;;;;;;1.80;1.70;;;;;;;;;;5019797;28;20248;-47
2021/10/18 02:12:10;;;;;;;2.40;2.20;;;;;;;;;;5029539;28;20279;-47
2021/10/18 02:14:36;;;;;;;2.42;2.00;;;;;;;;;;5033471;28;20172;-46
2021/10/18 02:17:02;;;;;;;2.20;2.00;;;;;;;;;;5028236;28;20179;-46
2021/10/18 02:19:28;;;;;;;2.65;2.00;;;;;;;;;;5034153;28;20464;-46
2021/10/18 02:21:54;;;;;;;1.98;1.88;;;;;;;;;;5016380;28;20204;-46
2021/10/18 02:24:20;;;;;;;2.58;2.38;;;;;;;;;;5015589;28;20184;-46
2021/10/18 02:26:46;;;;;;;2.45;2.25;;;;;;;;;;5024365;28;20229;-46
2021/10/18 02:29:12;;;;;;;4.05;2.20;;;;;;;;;;5026750;28;20199;-46
2021/10/18 02:31:38;;;;;;;1.95;1.85;;;;;;;;;;5017144;28;20198;-47
2021/10/18 02:34:04;;;;;;;2.38;2.10;;;;;;;;;;5026095;28;20191;-47
2021/10/18 02:36:31;;;;;;;2.10;1.90;;;;;;;;;;5027522;28;20176;-47
2021/10/18 02:38:58;;;;;;;2.45;2.00;;;;;;;;;;5021962;28;20184;-47
2021/10/18 02:41:24;;;;;;;2.20;2.00;;;;;;;;;;5017120;28;20215;-47
2021/10/18 02:43:50;;;;;;;2.42;2.20;;;;;;;;;;5015386;28;20173;-46
2021/10/18 02:46:16;;;;;;;2.10;2.00;;;;;;;;;;5029625;28;21071;-46
2021/10/18 02:48:42;;;;;;;2.25;2.05;;;;;;;;;;5031638;28;20254;-46
2021/10/18 02:51:08;;;;;;;4.05;1.90;;;;;;;;;;5029422;28;20508;-46
2021/10/18 02:53:34;;;;;;;2.40;2.20;;;;;;;;;;5034917;28;20540;-47
2021/10/18 02:56:00;;;;;;;2.40;1.98;;;;;;;;;;5024784;28;20218;-47
2021/10/18 02:58:26;;;;;;;2.38;1.92;;;;;;;;;;5030591;28;20207;-46
2021/10/18 03:00:52;;;;;;;2.47;2.00;;;;;;;;;;5022963;28;20208;-46
2021/10/18 03:03:18;;;;;;;2.70;2.20;;;;;;;;;;5015300;28;20173;-46
2021/10/18 03:05:44;;;;;;;2.40;2.20;;;;;;;;;;5024197;28;20176;-46
2021/10/18 03:08:09;;;;;;;1.95;1.85;;;;;;;;;;5019239;28;20298;-46
2021/10/18 03:10:40;;;;;;;2.50;2.00;;;;;;;;;;5027806;28;20172;-46
2021/10/18 03:13:06;;;;;;;3.35;2.05;;;;;;;;;;5034298;28;20168;-46
2021/10/18 03:15:32;;;;;;;3.10;1.80;;;;;;;;;;5032115;28;20499;-47
2021/10/18 03:17:58;;;;;;;2.40;2.20;;;;;;;;;;5028094;28;20176;-46
2021/10/18 03:20:24;;;;;;;2.25;2.10;;;;;;;;;;5023055;28;20449;-46
2021/10/18 03:22:50;;;;;;;2.42;2.13;;;;;;;;;;5034295;28;20203;-46
2021/10/18 03:25:16;;;;;;;2.83;2.15;;;;;;;;;;5032214;28;20214;-46
2021/10/18 03:27:42;;;;;;;2.80;2.50;;;;;;;;;;5033449;28;20184;-46
2021/10/18 03:30:08;;;;;;;2.63;1.90;;;;;;;;;;5026106;28;20494;-46
2021/10/18 03:32:34;;;;;;;3.10;1.88;;;;;;;;;;5015104;28;20264;-46
2021/10/18 03:35:00;;;;;;;2.72;2.03;;;;;;;;;;5025476;28;20183;-47
2021/10/18 03:37:26;;;;;;;2.13;1.92;;;;;;;;;;5016962;28;20219;-46
2021/10/18 03:39:52;;;;;;;2.45;2.25;;;;;;;;;;5025477;28;20207;-46
2021/10/18 03:42:18;;;;;;;2.47;2.28;;;;;;;;;;5013971;28;20204;-46
2021/10/18 03:44:44;;;;;;;2.00;1.80;;;;;;;;;;5015659;28;20434;-46
2021/10/18 03:47:10;;;;;;;2.42;2.15;;;;;;;;;;5022806;28;20188;-46
2021/10/18 03:49:36;;;;;;;1.90;1.77;;;;;;;;;;5031689;28;20263;-46
2021/10/18 03:52:03;;;;;;;5.80;1.98;;;;;;;;;;5014734;28;20184;-47
2021/10/18 03:54:29;;;;;;;2.63;2.10;;;;;;;;;;5022175;28;20191;-46
2021/10/18 03:56:55;;;;;;;3.63;1.75;;;;;;;;;;5025056;28;20448;-46
2021/10/18 03:59:21;;;;;;;3.17;2.40;;;;;;;;;;5024196;28;20193;-47
2021/10/18 04:01:48;;;;;;;3.60;2.03;;;;;;;;;;5014879;28;20507;-46
2021/10/18 04:04:14;;;;;;;3.20;2.17;;;;;;;;;;5014026;28;20165;-46
2021/10/18 04:06:40;;;;;;;6.55;2.10;;;;;;;;;;5023605;28;20259;-46
2021/10/18 04:09:06;;;;;;;6.88;2.40;;;;;;;;;;5026895;28;20191;-46
2021/10/18 04:11:39;;;;;;;7.38;2.25;;;;;;;;;;5025923;28;20185;-46
2021/10/18 04:14:06;;;;;;;4.35;2.20;;;;;;;;;;5019139;28;20182;-46
2021/10/18 04:16:32;;;;;;;4.38;2.20;;;;;;;;;;5018432;28;20255;-46
2021/10/18 04:18:58;;;;;;;5.43;2.40;;;;;;;;;;5020721;28;20214;-46
2021/10/18 04:21:24;;;;;;;8.77;2.45;;;;;;;;;;5033614;28;20204;-46
2021/10/18 04:23:50;;;;;;;6.72;2.58;;;;;;;;;;5033029;28;20270;-46
2021/10/18 04:26:16;;;;;;;5.85;2.58;;;;;;;;;;5024263;28;20555;-46
2021/10/18 04:28:42;;;;;;;10.18;2.95;;;;;;;;;;5033731;28;20172;-46
2021/10/18 04:31:08;;;;;;;10.57;2.78;;;;;;;;;;5032423;28;20179;-46
2021/10/18 04:33:34;;;;;;;7.50;3.10;;;;;;;;;;5033376;28;20176;-46
2021/10/18 04:36:00;;;;;;;9.70;2.72;;;;;;;;;;5030598;28;20208;-47
2021/10/18 04:38:26;;;;;;;10.85;3.28;;;;;;;;;;5014315;28;20173;-46
2021/10/18 04:40:52;;;;;;;12.10;3.42;;;;;;;;;;5025763;28;20210;-46
2021/10/18 04:43:18;;;;;;;11.40;3.00;;;;;;;;;;5017583;28;20169;-46
2021/10/18 04:45:44;;;;;;;7.80;2.95;;;;;;;;;;5018625;28;20180;-46
2021/10/18 04:48:10;;;;;;;8.77;2.95;;;;;;;;;;5036946;28;20176;-46
2021/10/18 04:50:36;;;;;;;6.80;3.30;;;;;;;;;;5027118;28;20627;-46
2021/10/18 04:53:02;;;;;;;6.28;3.00;;;;;;;;;;5016797;28;20188;-46
2021/10/18 04:55:28;;;;;;;9.25;2.80;;;;;;;;;;5029855;28;20262;-46
2021/10/18 04:57:56;;;;;;;10.35;2.80;;;;;;;;;;5024535;28;20180;-46
2021/10/18 05:00:23;;;;;;;5.53;2.95;;;;;;;;;;5022179;28;20208;-46
2021/10/18 05:02:49;;;;;;;5.30;2.97;;;;;;;;;;5016979;28;20176;-46
2021/10/18 05:05:15;;;;;;;7.55;3.00;;;;;;;;;;5023429;28;20237;-46
2021/10/18 05:07:41;;;;;;;8.65;2.90;;;;;;;;;;5033048;28;20250;-46
2021/10/18 05:10:14;;;;;;;6.53;2.78;;;;;;;;;;5033907;28;20180;-46
2021/10/18 05:12:40;;;;;;;4.88;2.53;;;;;;;;;;5020904;28;20211;-46
2021/10/18 05:15:07;;;;;;;5.38;2.85;;;;;;;;;;5022013;28;20218;-46
2021/10/18 05:17:35;;;;;;;3.85;2.53;;;;;;;;;;5030052;28;20295;-46
2021/10/18 05:20:01;;;;;;;4.03;2.60;;;;;;;;;;5026638;28;20211;-46
2021/10/18 05:22:27;;;;;;;6.70;2.83;;;;;;;;;;5017051;28;20289;-46
2021/10/18 05:24:53;;;;;;;5.88;3.03;;;;;;;;;;5016611;28;20191;-46
2021/10/18 05:27:19;;;;;;;6.93;2.35;;;;;;;;;;5026597;28;20172;-46
2021/10/18 05:29:45;;;;;;;4.45;2.47;;;;;;;;;;5024786;28;20199;-46
2021/10/18 05:32:11;;;;;;;7.82;2.70;;;;;;;;;;5034066;28;20191;-46
2021/10/18 05:34:37;;;;;;;4.75;2.45;;;;;;;;;;5034244;28;20543;-46
2021/10/18 05:37:03;;;;;;;6.20;2.72;;;;;;;;;;5026481;28;20218;-46
2021/10/18 05:39:29;;;;;;;5.07;2.70;;;;;;;;;;5019189;28;20181;-46
2021/10/18 05:41:55;;;;;;;4.35;2.47;;;;;;;;;;5016790;28;20209;-46
2021/10/18 05:44:21;;;;;;;5.38;2.30;;;;;;;;;;5024976;28;20180;-46
2021/10/18 05:46:47;;;;;;;5.00;2.88;;;;;;;;;;5022800;28;20584;-46
2021/10/18 05:49:13;;;;;;;4.65;2.35;;;;;;;;;;5036270;28;20555;-46
2021/10/18 05:51:39;;;;;;;5.38;2.30;;;;;;;;;;5032899;28;20199;-46
2021/10/18 05:54:07;;;;;;;3.67;2.10;;;;;;;;;;5031625;28;20193;-46
2021/10/18 05:56:33;;;;;;;4.57;2.40;;;;;;;;;;5028271;28;20573;-46
2021/10/18 05:58:59;;;;;;;2.92;1.83;;;;;;;;;;5023855;28;20180;-46
2021/10/18 06:01:25;;;;;;;6.47;2.15;;;;;;;;;;5015942;28;20471;-46
2021/10/18 06:03:51;;;;;;;3.05;2.25;;;;;;;;;;5015685;28;20169;-46
2021/10/18 06:06:17;;;;;;;3.38;2.58;;;;;;;;;;5015403;28;20231;-46
2021/10/18 06:08:44;;;;;;;4.90;2.40;;;;;;;;;;5016325;28;20422;-46
2021/10/18 06:11:10;;;;;;;2.88;2.20;;;;;;;;;;5024525;28;20187;-46
2021/10/18 06:13:36;;;;;;;5.00;2.53;;;;;;;;;;5028460;28;20176;-47
2021/10/18 06:16:02;;;;;;;5.05;2.17;;;;;;;;;;5035911;28;20172;-46
2021/10/18 06:18:29;;;;;;;2.40;2.17;;;;;;;;;;5039788;28;20244;-46
2021/10/18 06:20:55;;;;;;;2.72;2.10;;;;;;;;;;5018855;28;20588;-46
2021/10/18 06:23:22;;;;;;;3.83;2.00;;;;;;;;;;5015636;28;20181;-46
2021/10/18 06:25:49;;;;;;;3.22;2.20;;;;;;;;;;5016897;28;20287;-46
2021/10/18 06:28:15;;;;;;;3.70;2.30;;;;;;;;;;5015118;28;20179;-46
2021/10/18 06:30:42;;;;;;;2.40;1.75;;;;;;;;;;5015922;28;20194;-46
2021/10/18 06:33:08;;;;;;;3.58;2.13;;;;;;;;;;5015478;28;20177;-46
2021/10/18 06:35:35;;;;;;;4.03;2.45;;;;;;;;;;5024998;28;20208;-46
2021/10/18 06:38:01;;;;;;;3.47;2.28;;;;;;;;;;5035501;28;20270;-46
2021/10/18 06:40:27;;;;;;;4.13;2.22;;;;;;;;;;5035135;28;20278;-46
2021/10/18 06:42:53;;;;;;;4.63;2.47;;;;;;;;;;5035073;28;20168;-46
2021/10/18 06:45:20;;;;;;;3.58;2.38;;;;;;;;;;5028669;28;20476;-46
2021/10/18 06:47:46;;;;;;;6.50;2.70;;;;;;;;;;5032729;28;20191;-46
2021/10/18 06:50:12;;;;;;;3.50;2.10;;;;;;;;;;5028554;28;20176;-46
2021/10/18 06:52:41;;;;;;;2.97;2.00;;;;;;;;;;5023688;28;20214;-46
2021/10/18 06:55:09;;;;;;;3.10;1.90;;;;;;;;;;5025656;28;20223;-46
2021/10/18 06:57:36;;;;;;;3.45;2.22;;;;;;;;;;5016166;28;20168;-46
2021/10/18 07:00:02;;;;;;;3.33;2.13;;;;;;;;;;5032913;28;20565;-46
2021/10/18 07:02:28;;;;;;;2.42;2.20;;;;;;;;;;5018902;28;20239;-46
2021/10/18 07:04:54;;;;;;;3.20;2.20;;;;;;;;;;5012756;28;20208;-46
2021/10/18 07:07:21;;;;;;;2.97;2.17;;;;;;;;;;5014699;28;20492;-46
2021/10/18 07:09:47;;;;;;;3.38;2.53;;;;;;;;;;5015012;28;20247;-46
2021/10/18 07:12:13;;;;;;;3.63;2.15;;;;;;;;;;5015205;28;20255;-46
2021/10/18 07:14:39;;;;;;;3.80;2.25;;;;;;;;;;5014741;28;20173;-46
2021/10/18 07:17:05;;;;;;;2.65;2.38;;;;;;;;;;5015313;28;20177;-46
2021/10/18 07:19:31;;;;;;;3.38;2.28;;;;;;;;;;5015267;28;20225;-46
2021/10/18 07:21:57;;;;;;;2.15;1.75;;;;;;;;;;5014913;28;20706;-46
2021/10/18 07:24:23;;;;;;;3.40;2.28;;;;;;;;;;5014411;28;20648;-46
2021/10/18 07:26:50;;;;;;;3.60;2.55;;;;;;;;;;5015224;28;20260;-46
2021/10/18 07:29:21;;;;;;;2.95;2.10;;;;;;;;;;5015131;28;20161;-46
2021/10/18 07:31:47;;;;;;;2.65;2.30;;;;;;;;;;5015041;28;20191;-46
2021/10/18 07:34:17;;;;;;;3.47;2.17;;;;;;;;;;5014578;28;20169;-46
2021/10/18 07:36:50;;;;;;;3.25;2.40;;;;;;;;;;5014708;28;20196;-46
2021/10/18 07:39:22;;;;;;;2.97;1.98;;;;;;;;;;5027772;28;20191;-46
2021/10/18 07:41:49;;;;;;;2.17;1.98;;;;;;;;;;5030846;28;20208;-46
2021/10/18 07:44:15;;;;;;;3.80;2.42;;;;;;;;;;5014749;28;20173;-47
2021/10/18 07:46:42;;;;;;;2.90;2.40;;;;;;;;;;5024102;28;20301;-47
2021/10/18 07:49:08;;;;;;;2.92;2.20;;;;;;;;;;5032983;28;20493;-46
2021/10/18 07:51:34;;;;;;;3.25;2.13;;;;;;;;;;5034402;28;20536;-46
2021/10/18 07:54:00;;;;;;;2.92;2.30;;;;;;;;;;5034755;28;20191;-47
2021/10/18 07:56:26;;;;;;;3.75;1.95;;;;;;;;;;5017433;28;20208;-46
2021/10/18 07:58:52;;;;;;;2.28;2.08;;;;;;;;;;5015620;28;20274;-46
2021/10/18 08:01:18;;;;;;;2.65;2.22;;;;;;;;;;5015440;28;20204;-46
2021/10/18 08:03:44;;;;;;;2.50;2.00;;;;;;;;;;5014887;28;20529;-46
2021/10/18 08:06:10;;;;;;;2.38;1.90;;;;;;;;;;5029546;28;20222;-47
2021/10/18 08:08:44;;;;;;;2.20;2.00;;;;;;;;;;5015380;28;20169;-46
2021/10/18 08:11:10;;;;;;;2.50;2.15;;;;;;;;;;5031093;28;20186;-47
2021/10/18 08:13:36;;;;;;;2.30;1.85;;;;;;;;;;5048384;28;20183;-46
2021/10/18 08:16:02;;;;;;;2.47;2.00;;;;;;;;;;5019676;28;20184;-46
2021/10/18 08:18:28;;;;;;;2.03;1.83;;;;;;;;;;5018721;28;20502;-46
2021/10/18 08:20:54;;;;;;;2.22;2.03;;;;;;;;;;5038267;28;20238;-46
2021/10/18 08:23:20;;;;;;;3.05;2.10;;;;;;;;;;5052190;28;20179;-46
2021/10/18 08:25:46;;;;;;;3.03;1.90;;;;;;;;;;5045734;28;20546;-46
2021/10/18 08:28:12;;;;;;;2.35;1.95;;;;;;;;;;5020302;28;20563;-46
2021/10/18 08:30:39;;;;;;;2.50;2.20;;;;;;;;;;5038153;28;20573;-47
2021/10/18 08:33:05;;;;;;;2.22;2.03;;;;;;;;;;5043441;28;20179;-46
2021/10/18 08:35:32;;;;;;;2.47;2.13;;;;;;;;;;5054915;28;20242;-46
2021/10/18 08:38:16;;;;;;;2.17;1.98;;;;;;;;;;5055836;28;20167;-46
2021/10/18 08:45:48;;;;;;;2.55;2.05;;;;;;;;;;5053904;28;20646;-47
2021/10/18 08:48:14;;;;;;;4.00;2.20;;;;;;;;;;5037720;28;20178;-47
2021/10/18 08:50:40;;;;;;;2.67;2.10;;;;;;;;;;5038305;28;20214;-45
2021/10/18 08:53:06;;;;;;;2.50;1.92;;;;;;;;;;5037857;28;20539;-46
2021/10/18 08:55:36;;;;;;;2.38;2.00;;;;;;;;;;5037874;28;20187;-46
2021/10/18 08:58:03;;;;;;;2.40;2.03;;;;;;;;;;5037839;28;20428;-45
2021/10/18 09:00:43;;;;;;;2.42;2.22;;;;;;;;;;5037547;28;20204;-45
2021/10/18 09:03:18;;;;;;;1.88;1.70;;;;;;;;;;5037194;28;20172;-46
2021/10/18 09:05:44;;;;;;;2.30;2.10;;;;;;;;;;5037523;28;20182;-46
2021/10/18 09:08:26;;;;;;;2.40;2.10;;;;;;;;;;5037426;28;20234;-46
2021/10/18 09:11:13;;;;;;;2.10;1.90;;;;;;;;;;5037620;28;20202;-45
2021/10/18 09:13:42;;;;;;;2.17;1.98;;;;;;;;;;5036181;28;20175;-46
2021/10/18 09:16:11;;;;;;;2.92;2.20;;;;;;;;;;5037064;28;20204;-46
2021/10/18 09:18:37;;;;;;;2.75;2.15;;;;;;;;;;5037364;28;20726;-46
2021/10/18 09:21:03;;;;;;;2.03;1.85;;;;;;;;;;5021212;28;20196;-46
2021/10/18 09:23:32;;;;;;;2.08;1.75;;;;;;;;;;5016593;28;20185;-46
2021/10/18 09:26:05;;;;;;;1.85;1.70;;;;;;;;;;5027031;28;20168;-45
2021/10/18 09:28:32;;;;;;;2.67;2.30;;;;;;;;;;5028729;28;20185;-45
2021/10/18 09:30:58;;;;;;;2.72;2.53;;;;;;;;;;5017957;28;20212;-45
2021/10/18 09:33:32;;;;;;;2.10;1.75;;;;;;;;;;5035792;28;20180;-45
2021/10/18 09:35:58;;;;;;;3.10;2.00;;;;;;;;;;5036671;28;20591;-46
2021/10/18 09:38:24;;;;;;;1.95;1.75;;;;;;;;;;5036878;28;20168;-46
2021/10/18 09:40:54;;;;;;;2.22;2.03;;;;;;;;;;5036099;28;20605;-45
2021/10/18 09:46:08;;;;;;;2.13;1.98;;;;;;;;;;5035205;28;20287;-46
2021/10/18 10:53:10;;;;;;;1.75;1.65;;;;;;;;;;5024768;28;20319;-45
2021/10/18 10:55:36;;;;;;;1.80;1.70;;;;;;;;;;5021404;28;20195;-45
2021/10/18 10:58:04;;;;;;;2.03;1.83;;;;;;;;;;5035195;28;20250;-45
2021/10/18 11:00:32;;;;;;;1.60;1.50;;;;;;;;;;5034605;28;20187;-46
2021/10/18 11:03:17;;;;;;;1.75;1.48;;;;;;;;;;5033547;28;20164;-45
2021/10/18 11:06:05;;;;;;;1.60;1.50;;;;;;;;;;5033925;28;20179;-45
2021/10/18 11:08:33;;;;;;;1.90;1.60;;;;;;;;;;5034116;28;20477;-45
2021/10/18 11:11:11;;;;;;;1.65;1.55;;;;;;;;;;5034223;28;20180;-45
2021/10/18 11:13:42;;;;;;;1.73;1.63;;;;;;;;;;5033595;28;20250;-45
2021/10/18 11:16:08;;;;;;;1.60;1.50;;;;;;;;;;5033682;28;20183;-46
2021/10/18 11:18:34;;;;;;;1.63;1.52;;;;;;;;;;5034200;28;20251;-45
2021/10/18 11:21:17;;;;;;;1.70;1.60;;;;;;;;;;5019028;28;20204;-46
2021/10/18 11:24:01;;;;;;;1.85;1.60;;;;;;;;;;5014568;28;20173;-45
2021/10/18 11:26:32;;;;;;;1.70;1.60;;;;;;;;;;5014339;28;20169;-47
2021/10/18 11:28:59;;;;;;;1.48;1.38;;;;;;;;;;5014414;28;20196;-46
2021/10/18 11:31:33;;;;;;;2.47;1.50;;;;;;;;;;5014313;28;20188;-46
2021/10/18 11:34:03;;;;;;;1.60;1.50;;;;;;;;;;5031526;28;20179;-46
2021/10/18 11:36:30;;;;;;;1.02;1.02;;;;;;;;;;5014900;28;20231;-46
2021/10/18 11:39:06;;;;;;;1.92;1.67;;;;;;;;;;5023245;28;20190;-46
2021/10/18 11:41:32;;;;;;;1.60;1.50;;;;;;;;;;5016238;28;20477;-46
2021/10/18 11:43:58;;;;;;;1.50;1.40;;;;;;;;;;5030370;28;20186;-46
2021/10/18 11:46:24;;;;;;;1.98;1.58;;;;;;;;;;5029597;28;20176;-46
2021/10/18 11:48:50;;;;;;;1.60;1.50;;;;;;;;;;5032645;28;20202;-46
2021/10/18 11:51:16;;;;;;;1.58;1.25;;;;;;;;;;5017000;28;20547;-46
2021/10/18 11:53:45;;;;;;;1.48;1.38;;;;;;;;;;5025285;28;20207;-46
2021/10/18 11:56:17;;;;;;;1.70;1.60;;;;;;;;;;5013819;28;20184;-46
2021/10/18 11:58:44;;;;;;;1.67;1.58;;;;;;;;;;5013932;28;20215;-45
2021/10/18 12:01:10;;;;;;;1.65;1.55;;;;;;;;;;4978622;28;1081707;-45
2021/10/18 12:03:37;;;;;;;1.50;1.40;;;;;;;;;;5013221;28;20680;-46
2021/10/18 12:06:04;;;;;;;1.40;1.30;;;;;;;;;;5014457;28;20169;-45
2021/10/18 12:08:34;;;;;;;1.60;1.50;;;;;;;;;;5014790;28;20204;-45
2021/10/18 12:11:02;;;;;;;1.60;1.50;;;;;;;;;;5014698;28;20235;-46
2021/10/18 12:13:30;;;;;;;1.65;1.55;;;;;;;;;;5014101;28;20547;-45
2021/10/18 12:15:58;;;;;;;1.20;1.10;;;;;;;;;;5014188;28;20173;-46
2021/10/18 12:18:25;;;;;;;1.30;1.20;;;;;;;;;;5014987;28;20476;-46
2021/10/18 12:20:53;;;;;;;1.33;1.23;;;;;;;;;;5014437;28;20200;-46
2021/10/18 12:23:22;;;;;;;1.45;1.35;;;;;;;;;;5014085;28;20180;-45
2021/10/18 12:25:53;;;;;;;1.88;1.50;;;;;;;;;;5014403;28;20169;-46
2021/10/18 12:28:25;;;;;;;1.35;1.25;;;;;;;;;;5014353;28;20450;-45
2021/10/18 12:30:51;;;;;;;1.50;1.40;;;;;;;;;;5014447;28;20169;-46
2021/10/18 12:33:17;;;;;;;2.58;1.60;;;;;;;;;;5013315;28;20168;-46
2021/10/18 12:35:56;;;;;;;1.60;1.50;;;;;;;;;;5013945;28;20188;-46
2021/10/18 12:38:25;;;;;;;1.38;1.27;;;;;;;;;;5032242;28;20180;-45
2021/10/18 12:40:51;;;;;;;1.30;1.20;;;;;;;;;;5032055;28;20212;-45
2021/10/18 12:43:27;;;;;;;1.40;1.30;;;;;;;;;;5014007;28;20195;-46
2021/10/18 12:45:53;;;;;;;1.40;1.30;;;;;;;;;;5016164;28;20199;-46
2021/10/18 12:48:22;;;;;;;1.38;1.20;;;;;;;;;;5033917;28;20184;-46
2021/10/18 12:50:48;;;;;;;1.60;1.50;;;;;;;;;;5033361;28;20284;-46
2021/10/18 12:53:27;;;;;;;1.40;1.30;;;;;;;;;;5033553;28;20602;-46
2021/10/18 12:55:53;;;;;;;1.40;1.30;;;;;;;;;;5015513;28;20184;-46
2021/10/18 12:58:23;;;;;;;1.48;1.30;;;;;;;;;;5014329;28;20181;-46
2021/10/18 13:00:49;;;;;;;1.35;1.25;;;;;;;;;;5014422;28;20223;-46
2021/10/18 13:03:18;;;;;;;1.27;1.23;;;;;;;;;;5017185;28;20451;-46
2021/10/18 13:05:47;;;;;;;1.45;1.35;;;;;;;;;;5023271;28;20191;-46
2021/10/18 13:08:17;;;;;;;1.27;1.17;;;;;;;;;;5023217;28;20457;-46
2021/10/18 13:10:44;;;;;;;1.50;1.40;;;;;;;;;;5037464;28;20190;-45
2021/10/18 13:13:11;;;;;;;1.48;1.38;;;;;;;;;;5024932;28;20268;-45
2021/10/18 13:15:37;;;;;;;1.20;1.10;;;;;;;;;;5027095;28;20184;-46
2021/10/18 13:18:05;;;;;;;1.48;1.30;;;;;;;;;;5035897;28;20172;-46
2021/10/18 13:20:31;;;;;;;1.48;1.38;;;;;;;;;;5017257;28;20575;-45
2021/10/18 13:22:59;;;;;;;1.33;1.23;;;;;;;;;;5024455;28;20186;-45
2021/10/18 13:25:29;;;;;;;1.30;1.20;;;;;;;;;;5036648;28;20558;-46
2021/10/18 13:27:55;;;;;;;1.33;1.23;;;;;;;;;;5032011;28;20187;-46
2021/10/18 13:30:22;;;;;;;1.40;1.30;;;;;;;;;;5024803;28;20186;-46
2021/10/18 13:32:49;;;;;;;1.38;1.27;;;;;;;;;;5036372;28;20180;-46
2021/10/18 13:35:16;;;;;;;1.40;1.30;;;;;;;;;;5029256;28;20243;-45
2021/10/18 13:37:42;;;;;;;1.42;1.25;;;;;;;;;;5023063;28;20264;-45
2021/10/18 13:40:10;;;;;;;1.90;1.50;;;;;;;;;;5021931;28;20497;-46
2021/10/18 13:42:37;;;;;;;1.40;1.30;;;;;;;;;;5036630;28;20261;-45
2021/10/18 13:45:03;;;;;;;2.17;1.60;;;;;;;;;;5018347;28;20192;-45
2021/10/18 13:47:29;;;;;;;6.13;1.60;;;;;;;;;;5029136;28;20242;-46
2021/10/18 13:49:55;;;;;;;3.88;1.45;;;;;;;;;;5029976;28;20229;-46
2021/10/18 13:52:22;;;;;;;4.93;1.55;;;;;;;;;;5016778;28;20185;-46
2021/10/18 13:54:50;;;;;;;6.47;1.67;;;;;;;;;;5025058;28;20258;-46
2021/10/18 13:57:17;;;;;;;5.65;1.42;;;;;;;;;;5036621;28;20211;-46
2021/10/18 13:59:45;;;;;;;3.28;1.40;;;;;;;;;;5036111;28;20179;-45
2021/10/18 14:02:13;;;;;;;3.03;1.50;;;;;;;;;;5035947;28;20879;-46
2021/10/18 14:04:40;;;;;;;4.50;1.70;;;;;;;;;;5030294;28;20204;-46
2021/10/18 14:07:06;;;;;;;5.28;1.45;;;;;;;;;;5016863;28;20428;-46
2021/10/18 14:09:32;;;;;;;4.47;1.40;;;;;;;;;;5023574;28;20188;-46
2021/10/18 14:11:58;;;;;;;3.42;1.55;;;;;;;;;;5016330;28;20200;-45
2021/10/18 14:14:24;;;;;;;4.05;1.60;;;;;;;;;;5017399;28;20208;-46
2021/10/18 14:16:50;;;;;;;3.50;1.67;;;;;;;;;;5035670;28;20441;-46
2021/10/18 14:19:16;;;;;;;4.75;1.58;;;;;;;;;;5036421;28;20172;-45
2021/10/18 14:21:42;;;;;;;2.92;1.40;;;;;;;;;;5035972;28;20261;-46
2021/10/18 14:24:08;;;;;;;5.10;1.67;;;;;;;;;;5035549;28;20160;-45
2021/10/18 14:26:36;;;;;;;6.20;1.55;;;;;;;;;;5023919;28;20247;-45
2021/10/18 14:29:02;;;;;;;3.97;1.60;;;;;;;;;;5035900;28;20188;-46
2021/10/18 14:31:29;;;;;;;3.20;1.30;;;;;;;;;;5035687;28;20475;-46
2021/10/18 14:33:55;;;;;;;2.35;1.33;;;;;;;;;;5021822;28;20467;-45
2021/10/18 14:36:21;;;;;;;2.10;1.40;;;;;;;;;;5016022;28;20243;-45
2021/10/18 14:38:54;;;;;;;5.55;1.70;;;;;;;;;;5031230;28;20241;-45
2021/10/18 14:41:25;;;;;;;2.95;1.45;;;;;;;;;;5031402;28;20196;-46
2021/10/18 14:43:53;;;;;;;1.63;1.33;;;;;;;;;;5029283;28;20203;-45
2021/10/18 14:46:21;;;;;;;2.67;1.20;;;;;;;;;;5021395;28;20176;-45
2021/10/18 14:48:48;;;;;;;2.72;1.40;;;;;;;;;;5035485;28;20279;-46
2021/10/18 14:51:14;;;;;;;1.67;1.55;;;;;;;;;;5035646;28;20441;-46
2021/10/18 14:53:40;;;;;;;2.42;1.45;;;;;;;;;;5035094;28;20437;-45
2021/10/18 14:56:06;;;;;;;2.88;1.45;;;;;;;;;;5034677;28;20421;-46
2021/10/18 14:58:32;;;;;;;1.73;1.20;;;;;;;;;;5034721;28;20184;-46
2021/10/18 15:00:58;;;;;;;2.65;1.50;;;;;;;;;;5031655;28;20208;-46
2021/10/18 15:03:24;;;;;;;2.55;1.50;;;;;;;;;;5015177;28;20422;-46
2021/10/18 15:05:50;;;;;;;1.35;1.25;;;;;;;;;;5021336;28;20195;-46
2021/10/18 15:08:16;;;;;;;4.35;1.48;;;;;;;;;;5035239;28;20168;-45
2021/10/18 15:10:42;;;;;;;1.40;1.30;;;;;;;;;;5024402;28;20223;-46
2021/10/18 15:13:08;;;;;;;1.98;1.50;;;;;;;;;;5014545;28;20173;-46
2021/10/18 15:15:34;;;;;;;3.78;1.88;;;;;;;;;;5024418;28;20172;-46
2021/10/18 15:18:00;;;;;;;2.17;1.40;;;;;;;;;;5034726;28;20496;-46
2021/10/18 15:20:28;;;;;;;1.83;1.60;;;;;;;;;;5026598;28;20211;-45
2021/10/18 15:22:54;;;;;;;2.13;1.30;;;;;;;;;;5034045;28;20547;-45
2021/10/18 15:25:20;;;;;;;2.13;1.40;;;;;;;;;;5027033;28;20180;-46
2021/10/18 15:27:46;;;;;;;1.58;1.27;;;;;;;;;;5014871;28;20176;-46
2021/10/18 15:30:14;;;;;;;3.75;1.55;;;;;;;;;;5019313;28;20184;-45
2021/10/18 15:32:40;;;;;;;1.40;1.30;;;;;;;;;;5015028;28;20178;-45
2021/10/18 15:35:07;;;;;;;1.55;1.30;;;;;;;;;;5020265;28;20183;-45
2021/10/18 15:37:34;;;;;;;1.55;1.45;;;;;;;;;;5034790;28;20536;-45
2021/10/18 15:40:00;;;;;;;2.20;1.60;;;;;;;;;;5034311;28;20203;-46
2021/10/18 15:42:26;;;;;;;2.00;1.60;;;;;;;;;;5034333;28;20204;-45
2021/10/18 15:44:53;;;;;;;1.40;1.30;;;;;;;;;;5028493;28;20176;-46
2021/10/18 15:47:19;;;;;;;1.60;1.50;;;;;;;;;;5028479;28;20191;-46
2021/10/18 15:49:45;;;;;;;1.75;1.33;;;;;;;;;;5033920;28;20567;-46
2021/10/18 15:52:11;;;;;;;2.20;1.55;;;;;;;;;;5034565;28;20199;-45
2021/10/18 15:54:37;;;;;;;3.47;1.75;;;;;;;;;;5023914;28;20195;-45